createdAt,value
2024-02-24T00:01:14.939Z,10.40
2024-02-24T00:03:16.400Z,10.41
2024-02-24T00:05:18.128Z,10.60
2024-02-24T00:07:19.765Z,10.50
2024-02-24T00:09:21.254Z,10.59
2024-02-24T00:11:22.958Z,10.55
2024-02-24T00:13:24.483Z,10.47
2024-02-24T00:15:25.948Z,10.54
2024-02-24T00:17:27.511Z,10.62
2024-02-24T00:19:29.188Z,10.42
2024-02-24T00:21:30.709Z,10.45
2024-02-24T00:23:32.316Z,10.40
2024-02-24T00:25:33.773Z,10.19
2024-02-24T00:27:35.262Z,10.33
2024-02-24T00:29:36.848Z,10.08
2024-02-24T00:31:38.842Z,10.40
2024-02-24T00:33:42.206Z,10.31
2024-02-24T00:35:44.104Z,10.38
2024-02-24T00:37:45.806Z,10.36
2024-02-24T00:39:47.294Z,10.46
2024-02-24T00:41:48.979Z,10.49
2024-02-24T00:43:50.673Z,10.39
2024-02-24T00:45:52.118Z,10.54
2024-02-24T00:47:53.861Z,10.46
2024-02-24T00:49:55.622Z,10.22
2024-02-24T00:51:57.099Z,10.36
2024-02-24T00:53:58.690Z,10.40
2024-02-24T00:56:00.397Z,9.91
2024-02-24T00:58:01.842Z,10.23
2024-02-24T01:00:03.624Z,10.04
2024-02-24T01:02:05.162Z,10.04
2024-02-24T01:04:06.807Z,9.93
2024-02-24T01:06:08.326Z,10.15
2024-02-24T01:08:09.943Z,10.23
2024-02-24T01:10:11.458Z,10.12
2024-02-24T01:12:13.259Z,10.12
2024-02-24T01:14:14.971Z,10.25
2024-02-24T01:16:16.501Z,9.84
2024-02-24T01:18:18.371Z,10.07
2024-02-24T01:20:20.135Z,9.91
2024-02-24T01:22:21.655Z,9.85
2024-02-24T01:24:23.201Z,9.91
2024-02-24T01:26:24.777Z,9.85
2024-02-24T01:28:26.270Z,9.92
2024-02-24T01:30:27.885Z,9.86
2024-02-24T01:32:29.461Z,9.92
2024-02-24T01:34:31.556Z,9.82
2024-02-24T01:36:33.145Z,9.82
2024-02-24T01:38:34.804Z,9.90
2024-02-24T01:40:36.300Z,9.87
2024-02-24T01:42:37.855Z,9.92
2024-02-24T01:44:39.465Z,9.74
2024-02-24T01:46:41.254Z,9.75
2024-02-24T01:48:43.087Z,9.78
2024-02-24T01:50:47.376Z,9.51
2024-02-24T01:52:50.122Z,9.72
2024-02-24T01:54:56.639Z,9.80
2024-02-24T01:56:58.633Z,9.71
2024-02-24T01:59:00.510Z,9.77
2024-02-24T02:01:02.481Z,9.62
2024-02-24T02:03:04.279Z,9.45
2024-02-24T02:05:07.304Z,9.61
2024-02-24T02:07:08.869Z,9.60
2024-02-24T02:09:10.433Z,9.61
2024-02-24T02:11:12.007Z,9.62
2024-02-24T02:13:14.066Z,9.57
2024-02-24T02:15:15.673Z,9.48
2024-02-24T02:17:17.512Z,9.75
2024-02-24T02:19:19.119Z,9.58
2024-02-24T02:21:22.065Z,9.88
2024-02-24T02:23:23.695Z,9.99
2024-02-24T02:25:25.564Z,10.02
2024-02-24T02:27:27.126Z,9.87
2024-02-24T02:29:28.676Z,10.09
2024-02-24T02:31:30.204Z,9.90
2024-02-24T02:33:31.878Z,9.87
2024-02-24T02:35:33.522Z,9.93
2024-02-24T02:37:35.223Z,9.85
2024-02-24T02:39:36.946Z,10.08
2024-02-24T02:41:38.483Z,10.19
2024-02-24T02:43:40.189Z,10.09
2024-02-24T02:45:41.736Z,10.07
2024-02-24T02:47:43.338Z,9.95
2024-02-24T02:49:45.010Z,9.91
2024-02-24T02:51:46.593Z,9.81
2024-02-24T02:53:48.098Z,9.92
2024-02-24T02:55:49.589Z,9.98
2024-02-24T02:57:51.120Z,9.68
2024-02-24T02:59:52.694Z,9.64
2024-02-24T03:01:54.356Z,9.63
2024-02-24T03:03:56.080Z,9.73
2024-02-24T03:05:57.613Z,9.75
2024-02-24T03:07:59.136Z,10.10
2024-02-24T03:10:00.877Z,9.71
2024-02-24T03:12:02.541Z,9.54
2024-02-24T03:14:05.096Z,9.45
2024-02-24T03:16:07.000Z,9.31
2024-02-24T03:18:08.569Z,9.49
2024-02-24T03:20:10.993Z,9.51
2024-02-24T03:22:12.599Z,9.39
2024-02-24T03:24:14.072Z,9.53
2024-02-24T03:26:15.560Z,9.23
2024-02-24T03:28:17.174Z,9.39
2024-02-24T03:30:18.651Z,9.19
2024-02-24T03:32:20.261Z,9.29
2024-02-24T03:34:22.040Z,9.23
2024-02-24T03:36:24.697Z,9.17
2024-02-24T03:38:26.268Z,9.48
2024-02-24T03:40:27.871Z,9.47
2024-02-24T03:42:29.321Z,9.41
2024-02-24T03:44:31.003Z,9.32
2024-02-24T03:46:32.761Z,9.37
2024-02-24T03:48:34.471Z,9.29
2024-02-24T03:50:36.131Z,9.27
2024-02-24T03:52:37.941Z,9.31
2024-02-24T03:54:39.397Z,9.40
2024-02-24T03:56:40.996Z,9.44
2024-02-24T03:58:42.784Z,9.37
2024-02-24T04:00:44.303Z,9.24
2024-02-24T04:02:45.967Z,9.24
2024-02-24T04:04:47.478Z,9.23
2024-02-24T04:06:49.389Z,9.16
2024-02-24T04:08:51.055Z,9.22
2024-02-24T04:10:52.696Z,9.35
2024-02-24T04:12:54.193Z,9.39
2024-02-24T04:14:55.927Z,9.44
2024-02-24T04:16:57.562Z,9.41
2024-02-24T04:18:59.104Z,9.39
2024-02-24T04:21:00.674Z,9.36
2024-02-24T04:23:02.280Z,9.29
2024-02-24T04:25:03.939Z,9.12
2024-02-24T04:27:05.503Z,9.21
2024-02-24T04:29:07.112Z,9.25
2024-02-24T04:31:08.591Z,9.30
2024-02-24T04:33:10.204Z,9.12
2024-02-24T04:35:12.335Z,9.13
2024-02-24T04:37:13.956Z,9.14
2024-02-24T04:39:15.421Z,9.11
2024-02-24T04:41:17.038Z,9.02
2024-02-24T04:43:18.494Z,9.11
2024-02-24T04:45:20.172Z,9.31
2024-02-24T04:47:21.756Z,9.11
2024-02-24T04:49:23.342Z,8.85
2024-02-24T04:51:24.957Z,9.05
2024-02-24T04:53:26.538Z,8.89
2024-02-24T04:55:28.074Z,9.02
2024-02-24T04:57:29.736Z,8.93
2024-02-24T04:59:31.460Z,8.93
2024-02-24T05:01:32.963Z,8.84
2024-02-24T05:03:34.757Z,9.07
2024-02-24T05:05:36.413Z,8.65
2024-02-24T05:07:37.929Z,9.01
2024-02-24T05:09:39.486Z,8.98
2024-02-24T05:11:41.723Z,9.05
2024-02-24T05:13:43.320Z,9.14
2024-02-24T05:15:44.990Z,8.82
2024-02-24T05:17:47.055Z,9.08
2024-02-24T05:19:49.269Z,9.03
2024-02-24T05:21:50.710Z,9.02
2024-02-24T05:23:52.327Z,8.84
2024-02-24T05:25:53.827Z,8.96
2024-02-24T05:27:55.432Z,9.10
2024-02-24T05:29:57.014Z,8.95
2024-02-24T05:31:58.491Z,8.91
2024-02-24T05:34:00.271Z,8.78
2024-02-24T05:36:02.025Z,8.90
2024-02-24T05:38:03.635Z,9.15
2024-02-24T05:40:05.733Z,9.13
2024-02-24T05:42:07.507Z,9.07
2024-02-24T05:44:09.106Z,9.09
2024-02-24T05:46:10.658Z,9.01
2024-02-24T05:48:12.546Z,9.25
2024-02-24T05:50:14.179Z,9.22
2024-02-24T05:52:17.606Z,9.20
2024-02-24T05:54:19.076Z,9.14
2024-02-24T05:56:20.569Z,9.18
2024-02-24T05:58:22.295Z,9.17
2024-02-24T06:00:23.876Z,9.32
2024-02-24T06:02:25.438Z,9.26
2024-02-24T06:04:27.021Z,9.35
2024-02-24T06:06:28.791Z,9.27
2024-02-24T06:08:30.359Z,9.27
2024-02-24T06:10:31.865Z,9.09
2024-02-24T06:12:33.459Z,9.05
2024-02-24T06:14:35.328Z,9.12
2024-02-24T06:16:36.892Z,9.00
2024-02-24T06:18:38.730Z,9.36
2024-02-24T06:20:40.395Z,9.27
2024-02-24T06:22:41.922Z,9.30
2024-02-24T06:24:43.490Z,9.53
2024-02-24T06:26:45.006Z,9.29
2024-02-24T06:28:46.581Z,9.27
2024-02-24T06:30:48.159Z,9.52
2024-02-24T06:32:49.667Z,9.13
2024-02-24T06:34:51.339Z,9.23
2024-02-24T06:36:52.957Z,9.16
2024-02-24T06:38:54.439Z,9.36
2024-02-24T06:40:56.044Z,9.35
2024-02-24T06:42:57.518Z,9.39
2024-02-24T06:44:59.048Z,9.39
2024-02-24T06:47:04.387Z,9.29
2024-02-24T06:49:10.407Z,9.43
2024-02-24T06:51:12.037Z,9.47
2024-02-24T06:53:13.544Z,9.62
2024-02-24T06:55:15.303Z,9.42
2024-02-24T06:57:16.770Z,9.14
2024-02-24T06:59:18.373Z,9.59
2024-02-24T07:01:22.869Z,9.53
2024-02-24T07:03:24.534Z,9.71
2024-02-24T07:05:26.280Z,9.46
2024-02-24T07:07:27.806Z,9.45
2024-02-24T07:09:29.269Z,9.40
2024-02-24T07:11:30.812Z,9.29
2024-02-24T07:13:32.397Z,9.30
2024-02-24T07:15:33.845Z,9.46
2024-02-24T07:17:35.471Z,9.40
2024-02-24T07:19:37.157Z,9.42
2024-02-24T07:21:42.375Z,9.53
2024-02-24T07:23:43.878Z,9.54
2024-02-24T07:25:45.361Z,9.57
2024-02-24T07:27:46.850Z,9.44
2024-02-24T07:29:48.453Z,9.64
2024-02-24T07:31:50.034Z,9.48
2024-02-24T07:33:51.713Z,9.48
2024-02-24T07:35:53.649Z,9.39
2024-02-24T07:37:55.175Z,9.62
2024-02-24T07:39:56.619Z,9.90
2024-02-24T07:41:58.215Z,9.83
2024-02-24T07:43:59.812Z,9.72
2024-02-24T07:46:01.271Z,10.02
2024-02-24T07:48:03.184Z,9.93
2024-02-24T07:50:05.150Z,9.87
2024-02-24T07:52:06.796Z,9.94
2024-02-24T07:54:08.620Z,9.85
2024-02-24T07:56:10.157Z,10.05
2024-02-24T07:58:11.616Z,9.92
2024-02-24T08:00:13.418Z,10.06
2024-02-24T08:02:15.202Z,10.04
2024-02-24T08:04:16.824Z,9.89
2024-02-24T08:06:18.343Z,9.57
2024-02-24T08:08:19.964Z,9.75
2024-02-24T08:10:21.491Z,9.95
2024-02-24T08:12:23.206Z,9.72
2024-02-24T08:14:24.770Z,10.00
2024-02-24T08:16:28.174Z,9.97
2024-02-24T08:18:29.705Z,9.87
2024-02-24T08:20:32.942Z,9.90
2024-02-24T08:22:35.872Z,10.06
2024-02-24T08:24:37.409Z,10.00
2024-02-24T08:26:39.191Z,10.32
2024-02-24T08:28:40.674Z,10.37
2024-02-24T08:30:42.233Z,10.08
2024-02-24T08:32:45.698Z,9.70
2024-02-24T08:34:47.827Z,9.61
2024-02-24T08:36:49.549Z,9.90
2024-02-24T08:38:51.175Z,9.49
2024-02-24T08:40:55.004Z,9.52
2024-02-24T08:42:56.470Z,9.49
2024-02-24T08:44:58.083Z,9.74
2024-02-24T08:46:59.550Z,9.82
2024-02-24T08:49:01.205Z,9.97
2024-02-24T08:51:04.822Z,10.06
2024-02-24T08:53:06.288Z,9.97
2024-02-24T08:55:08.148Z,10.07
2024-02-24T08:57:09.736Z,9.58
2024-02-24T08:59:11.241Z,9.63
2024-02-24T09:01:14.696Z,9.49
2024-02-24T09:03:16.413Z,9.24
2024-02-24T09:05:17.931Z,9.05
2024-02-24T09:07:19.636Z,8.98
2024-02-24T09:09:21.135Z,8.98
2024-02-24T09:11:22.780Z,8.77
2024-02-24T09:13:24.493Z,8.52
2024-02-24T09:15:27.888Z,8.54
2024-02-24T09:17:30.505Z,8.45
2024-02-24T09:19:32.275Z,8.51
2024-02-24T09:21:33.869Z,8.61
2024-02-24T09:23:35.388Z,8.22
2024-02-24T09:25:37.140Z,8.14
2024-02-24T09:27:38.722Z,8.28
2024-02-24T09:29:40.209Z,8.07
2024-02-24T09:31:41.967Z,8.05
2024-02-24T09:33:43.640Z,8.00
2024-02-24T09:35:45.195Z,8.00
2024-02-24T09:37:46.835Z,8.00
2024-02-24T09:39:48.400Z,7.91
2024-02-24T09:41:50.031Z,8.13
2024-02-24T09:43:51.838Z,8.09
2024-02-24T09:45:55.058Z,8.02
2024-02-24T09:47:57.263Z,8.31
2024-02-24T09:50:00.520Z,8.22
2024-02-24T09:52:02.439Z,8.60
2024-02-24T09:54:03.998Z,8.61
2024-02-24T09:56:05.914Z,8.48
2024-02-24T09:58:12.057Z,8.60
2024-02-24T10:00:13.733Z,8.12
2024-02-24T10:02:16.001Z,8.42
2024-02-24T10:04:18.820Z,8.23
2024-02-24T10:06:20.930Z,8.21
2024-02-24T10:08:23.837Z,8.32
2024-02-24T10:10:26.206Z,7.99
2024-02-24T10:12:27.703Z,8.24
2024-02-24T10:14:33.712Z,8.18
2024-02-24T10:16:38.862Z,8.15
2024-02-24T10:18:40.866Z,8.19
2024-02-24T10:20:42.739Z,8.21
2024-02-24T10:22:44.253Z,8.03
2024-02-24T10:24:46.843Z,8.01
2024-02-24T10:26:52.617Z,7.94
2024-02-24T10:28:54.338Z,8.37
2024-02-24T10:30:59.452Z,8.69
2024-02-24T10:33:01.903Z,8.85
2024-02-24T10:35:07.449Z,8.96
2024-02-24T10:37:09.439Z,8.65
2024-02-24T10:39:11.127Z,8.46
2024-02-24T10:41:13.147Z,8.20
2024-02-24T10:43:15.988Z,8.04
2024-02-24T10:45:17.967Z,8.33
2024-02-24T10:47:19.857Z,8.18
2024-02-24T10:49:21.547Z,8.25
2024-02-24T10:51:23.384Z,8.13
2024-02-24T10:53:26.797Z,7.82
2024-02-24T10:55:30.971Z,8.01
2024-02-24T10:57:34.727Z,8.06
2024-02-24T10:59:36.228Z,8.59
2024-02-24T11:01:46.833Z,8.53
2024-02-24T11:03:50.524Z,8.38
2024-02-24T11:05:52.214Z,8.29
2024-02-24T11:07:53.960Z,8.23
2024-02-24T11:09:55.854Z,8.22
2024-02-24T11:12:13.121Z,8.35
2024-02-24T11:14:17.707Z,8.17
2024-02-24T11:16:19.194Z,8.43
2024-02-24T11:18:50.048Z,8.10
2024-02-24T11:20:55.325Z,7.91
2024-02-24T11:23:23.092Z,7.92
2024-02-24T11:25:24.627Z,8.09
2024-02-24T11:27:30.031Z,8.23
2024-02-24T11:29:32.183Z,8.19
2024-02-24T11:31:36.437Z,8.20
2024-02-24T11:33:38.225Z,7.87
2024-02-24T11:35:40.559Z,7.80
2024-02-24T11:37:43.539Z,7.80
2024-02-24T11:39:45.558Z,7.88
2024-02-24T11:41:47.869Z,7.90
2024-02-24T11:43:49.601Z,7.98
2024-02-24T11:45:52.668Z,8.15
2024-02-24T11:47:54.205Z,8.47
2024-02-24T11:49:55.870Z,8.22
2024-02-24T11:51:57.374Z,8.36
2024-02-24T11:53:59.832Z,8.08
2024-02-24T11:56:01.478Z,8.29
2024-02-24T11:58:03.275Z,8.28
2024-02-24T12:00:05.253Z,8.24
2024-02-24T12:02:06.956Z,8.27
2024-02-24T12:04:08.470Z,8.14
2024-02-24T12:06:10.213Z,8.55
2024-02-24T12:08:14.247Z,8.46
2024-02-24T12:10:15.957Z,8.47
2024-02-24T12:12:17.633Z,8.53
2024-02-24T12:14:19.300Z,8.46
2024-02-24T12:16:22.375Z,8.70
2024-02-24T12:18:24.062Z,8.77
2024-02-24T12:20:26.027Z,8.31
2024-02-24T12:22:28.094Z,8.30
2024-02-24T12:24:30.053Z,8.51
2024-02-24T12:26:31.857Z,8.52
2024-02-24T12:28:33.379Z,8.14
2024-02-24T12:30:42.799Z,8.46
2024-02-24T12:32:44.608Z,8.25
2024-02-24T12:34:46.212Z,8.01
2024-02-24T12:36:47.904Z,8.25
2024-02-24T12:38:49.538Z,8.35
2024-02-24T12:40:51.108Z,8.41
2024-02-24T12:42:52.744Z,8.24
2024-02-24T12:44:54.605Z,8.49
2024-02-24T12:46:56.222Z,8.55
2024-02-24T12:48:57.962Z,8.35
2024-02-24T12:51:00.371Z,8.74
2024-02-24T12:53:07.118Z,8.71
2024-02-24T12:55:08.975Z,9.16
2024-02-24T12:57:10.543Z,9.50
2024-02-24T12:59:12.008Z,9.48
2024-02-24T13:01:13.683Z,9.43
2024-02-24T13:03:15.265Z,9.23
2024-02-24T13:05:16.944Z,9.41
2024-02-24T13:07:18.458Z,9.72
2024-02-24T13:09:19.996Z,9.97
2024-02-24T13:11:21.692Z,9.67
2024-02-24T13:13:23.208Z,9.75
2024-02-24T13:15:24.708Z,10.03
2024-02-24T13:17:26.458Z,9.82
2024-02-24T13:19:28.112Z,9.68
2024-02-24T13:21:29.790Z,10.12
2024-02-24T13:23:31.348Z,10.57
2024-02-24T13:25:32.886Z,10.31
2024-02-24T13:27:34.447Z,9.97
2024-02-24T13:29:35.949Z,10.25
2024-02-24T13:31:37.539Z,10.52
2024-02-24T13:33:39.297Z,10.35
2024-02-24T13:35:40.869Z,10.76
2024-02-24T13:37:42.433Z,10.75
2024-02-24T13:39:44.080Z,10.69
2024-02-24T13:41:45.722Z,10.79
2024-02-24T13:43:47.345Z,10.66
2024-02-24T13:45:49.021Z,10.99
2024-02-24T13:47:53.531Z,10.34
2024-02-24T13:49:55.610Z,10.05
2024-02-24T13:51:57.262Z,9.86
2024-02-24T13:53:59.493Z,9.99
2024-02-24T13:56:01.090Z,10.05
2024-02-24T13:58:02.715Z,9.93
2024-02-24T14:00:04.542Z,10.25
2024-02-24T14:02:06.238Z,10.20
2024-02-24T14:04:07.939Z,9.80
2024-02-24T14:06:09.726Z,9.78
2024-02-24T14:08:11.334Z,9.90
2024-02-24T14:10:13.029Z,10.05
2024-02-24T14:12:14.484Z,9.91
2024-02-24T14:14:16.082Z,10.12
2024-02-24T14:16:17.907Z,10.35
2024-02-24T14:18:19.524Z,10.51
2024-02-24T14:20:25.742Z,10.70
2024-02-24T14:22:30.347Z,10.41
2024-02-24T14:24:31.803Z,10.53
2024-02-24T14:26:33.284Z,10.72
2024-02-24T14:28:34.886Z,10.92
2024-02-24T14:30:36.334Z,10.57
2024-02-24T14:32:38.131Z,10.72
2024-02-24T14:34:39.772Z,10.30
2024-02-24T14:36:41.246Z,10.37
2024-02-24T14:38:42.734Z,9.73
2024-02-24T14:40:44.457Z,10.06
2024-02-24T14:42:47.009Z,9.88
2024-02-24T14:44:48.537Z,9.95
2024-02-24T14:47:01.060Z,10.26
2024-02-24T14:49:02.630Z,9.75
2024-02-24T14:51:04.362Z,9.74
2024-02-24T14:53:05.960Z,9.93
2024-02-24T14:55:07.884Z,10.16
2024-02-24T14:57:09.594Z,10.17
2024-02-24T14:59:11.256Z,10.35
2024-02-24T15:01:15.572Z,10.09
2024-02-24T15:03:17.675Z,10.27
2024-02-24T15:05:19.410Z,10.16
2024-02-24T15:07:20.931Z,10.42
2024-02-24T15:09:22.420Z,10.33
2024-02-24T15:11:24.519Z,10.36
2024-02-24T15:13:29.980Z,10.40
2024-02-24T15:15:33.701Z,10.37
2024-02-24T15:17:35.568Z,10.16
2024-02-24T15:19:37.184Z,9.96
2024-02-24T15:21:38.801Z,10.01
2024-02-24T15:23:40.685Z,10.19
2024-02-24T15:25:44.288Z,9.92
2024-02-24T15:27:47.156Z,10.06
2024-02-24T15:29:49.029Z,10.21
2024-02-24T15:31:50.513Z,10.08
2024-02-24T15:33:52.583Z,9.63
2024-02-24T15:35:54.351Z,9.48
2024-02-24T15:37:55.912Z,9.30
2024-02-24T15:39:57.351Z,9.40
2024-02-24T15:41:59.136Z,9.48
2024-02-24T15:44:00.665Z,9.69
2024-02-24T15:46:02.140Z,9.54
2024-02-24T15:48:04.259Z,9.52
2024-02-24T15:50:06.390Z,9.58
2024-02-24T15:52:07.873Z,9.68
2024-02-24T15:54:09.808Z,9.72
2024-02-24T15:56:14.107Z,9.65
2024-02-24T15:58:16.983Z,9.51
2024-02-24T16:00:18.999Z,9.69
2024-02-24T16:02:20.559Z,9.62
2024-02-24T16:04:22.152Z,9.57
2024-02-24T16:06:23.873Z,9.41
2024-02-24T16:08:25.494Z,9.37
2024-02-24T16:10:26.966Z,9.29
2024-02-24T16:12:28.666Z,9.26
2024-02-24T16:14:30.353Z,9.23
2024-02-24T16:16:31.983Z,9.10
2024-02-24T16:18:33.709Z,9.16
2024-02-24T16:20:35.494Z,9.14
2024-02-24T16:22:37.066Z,9.11
2024-02-24T16:24:38.517Z,9.02
2024-02-24T16:26:40.075Z,8.96
2024-02-24T16:28:41.749Z,8.94
2024-02-24T16:30:43.566Z,8.72
2024-02-24T16:32:45.260Z,8.33
2024-02-24T16:34:46.852Z,8.02
2024-02-24T16:36:48.582Z,8.02
2024-02-24T16:38:50.270Z,8.17
2024-02-24T16:40:51.831Z,8.10
2024-02-24T16:42:53.677Z,8.23
2024-02-24T16:44:55.280Z,8.27
2024-02-24T16:46:56.865Z,8.32
2024-02-24T16:48:58.610Z,8.05
2024-02-24T16:51:00.190Z,8.13
2024-02-24T16:53:01.736Z,7.92
2024-02-24T16:55:03.514Z,7.96
2024-02-24T16:57:05.320Z,7.56
2024-02-24T16:59:06.832Z,7.38
2024-02-24T17:01:08.469Z,7.23
2024-02-24T17:03:09.993Z,7.41
2024-02-24T17:05:11.460Z,7.45
2024-02-24T17:07:12.952Z,7.36
2024-02-24T17:09:14.614Z,7.47
2024-02-24T17:11:22.333Z,7.41
2024-02-24T17:13:24.036Z,7.37
2024-02-24T17:15:25.731Z,7.43
2024-02-24T17:17:27.546Z,7.30
2024-02-24T17:19:29.444Z,7.05
2024-02-24T17:21:31.955Z,7.09
2024-02-24T17:23:33.936Z,7.17
2024-02-24T17:25:35.412Z,7.16
2024-02-24T17:27:37.950Z,7.32
2024-02-24T17:29:39.597Z,7.25
2024-02-24T17:31:41.098Z,7.24
2024-02-24T17:33:43.030Z,7.28
2024-02-24T17:35:44.712Z,7.18
2024-02-24T17:37:46.205Z,7.17
2024-02-24T17:39:47.652Z,7.34
2024-02-24T17:41:49.153Z,7.29
2024-02-24T17:43:50.651Z,7.32
2024-02-24T17:45:52.122Z,7.41
2024-02-24T17:47:53.674Z,7.21
2024-02-24T17:49:55.440Z,7.23
2024-02-24T17:51:56.927Z,7.26
2024-02-24T17:53:58.501Z,7.06
2024-02-24T17:56:00.728Z,6.74
2024-02-24T17:58:02.223Z,6.57
2024-02-24T18:00:04.709Z,6.70
2024-02-24T18:02:06.744Z,6.88
2024-02-24T18:04:08.248Z,6.94
2024-02-24T18:06:10.021Z,6.89
2024-02-24T18:08:11.600Z,6.91
2024-02-24T18:10:13.262Z,7.06
2024-02-24T18:12:15.132Z,6.82
2024-02-24T18:14:16.700Z,6.88
2024-02-24T18:16:18.246Z,6.69
2024-02-24T18:18:20.004Z,6.54
2024-02-24T18:20:21.685Z,6.64
2024-02-24T18:22:23.192Z,6.67
2024-02-24T18:24:24.676Z,6.65
2024-02-24T18:26:26.148Z,6.83
2024-02-24T18:28:27.654Z,6.72
2024-02-24T18:30:29.302Z,6.44
2024-02-24T18:32:30.894Z,6.63
2024-02-24T18:34:32.567Z,6.66
2024-02-24T18:36:34.474Z,6.43
2024-02-24T18:38:36.118Z,6.72
2024-02-24T18:40:37.668Z,6.80
2024-02-24T18:42:40.191Z,6.83
2024-02-24T18:44:42.128Z,6.79
2024-02-24T18:46:43.604Z,6.63
2024-02-24T18:48:45.393Z,6.49
2024-02-24T18:50:47.161Z,6.69
2024-02-24T18:52:48.673Z,6.76
2024-02-24T18:54:50.436Z,6.60
2024-02-24T18:56:52.185Z,6.67
2024-02-24T18:58:53.728Z,6.50
2024-02-24T19:00:55.250Z,6.38
2024-02-24T19:02:56.776Z,6.57
2024-02-24T19:04:58.394Z,6.52
2024-02-24T19:07:00.182Z,6.55
2024-02-24T19:09:01.785Z,6.56
2024-02-24T19:11:03.301Z,6.72
2024-02-24T19:13:04.978Z,6.47
2024-02-24T19:15:06.904Z,6.21
2024-02-24T19:17:08.399Z,6.45
2024-02-24T19:19:10.265Z,6.56
2024-02-24T19:21:11.960Z,6.47
2024-02-24T19:23:13.483Z,6.64
2024-02-24T19:25:15.555Z,6.61
2024-02-24T19:27:17.030Z,6.76
2024-02-24T19:29:18.892Z,6.69
2024-02-24T19:31:20.581Z,6.71
2024-02-24T19:33:22.273Z,6.67
2024-02-24T19:35:24.111Z,6.54
2024-02-24T19:37:25.838Z,6.49
2024-02-24T19:39:27.302Z,6.40
2024-02-24T19:41:28.853Z,6.57
2024-02-24T19:43:30.452Z,6.60
2024-02-24T19:45:31.924Z,6.61
2024-02-24T19:47:33.762Z,6.69
2024-02-24T19:49:35.408Z,6.77
2024-02-24T19:51:37.012Z,6.80
2024-02-24T19:53:38.570Z,6.69
2024-02-24T19:55:40.183Z,6.52
2024-02-24T19:57:41.827Z,6.57
2024-02-24T19:59:44.193Z,6.56
2024-02-24T20:01:45.911Z,6.40
2024-02-24T20:03:47.398Z,6.24
2024-02-24T20:05:49.019Z,6.15
2024-02-24T20:07:50.568Z,6.05
2024-02-24T20:09:52.041Z,6.27
2024-02-24T20:11:54.332Z,6.15
2024-02-24T20:13:56.090Z,6.43
2024-02-24T20:15:57.621Z,6.35
2024-02-24T20:17:59.287Z,6.19
2024-02-24T20:20:01.063Z,6.11
2024-02-24T20:22:02.577Z,5.85
2024-02-24T20:24:04.563Z,5.93
2024-02-24T20:26:06.312Z,5.87
2024-02-24T20:28:07.775Z,5.74
2024-02-24T20:30:09.618Z,5.68
2024-02-24T20:32:11.208Z,5.68
2024-02-24T20:34:12.956Z,5.72
2024-02-24T20:36:14.987Z,5.67
2024-02-24T20:38:16.541Z,5.68
2024-02-24T20:40:18.001Z,5.84
2024-02-24T20:42:19.492Z,5.90
2024-02-24T20:44:21.075Z,5.91
2024-02-24T20:46:22.616Z,5.93
2024-02-24T20:48:24.277Z,5.88
2024-02-24T20:50:25.971Z,5.77
2024-02-24T20:52:27.540Z,5.77
2024-02-24T20:54:29.011Z,5.92
2024-02-24T20:56:30.606Z,6.04
2024-02-24T20:58:32.109Z,5.95
2024-02-24T21:00:33.649Z,5.86
2024-02-24T21:02:35.392Z,5.78
2024-02-24T21:04:36.898Z,5.93
2024-02-24T21:06:38.486Z,5.80
2024-02-24T21:08:40.254Z,5.72
2024-02-24T21:10:41.778Z,5.80
2024-02-24T21:12:43.326Z,5.78
2024-02-24T21:14:45.065Z,5.79
2024-02-24T21:16:46.525Z,5.88
2024-02-24T21:18:48.237Z,5.81
2024-02-24T21:20:50.073Z,5.70
2024-02-24T21:22:51.582Z,5.97
2024-02-24T21:24:53.024Z,5.84
2024-02-24T21:26:54.752Z,5.79
2024-02-24T21:28:56.243Z,5.71
2024-02-24T21:30:57.703Z,5.77
2024-02-24T21:32:59.383Z,5.41
2024-02-24T21:35:00.970Z,5.42
2024-02-24T21:37:02.471Z,5.36
2024-02-24T21:39:04.193Z,5.67
2024-02-24T21:41:05.742Z,5.36
2024-02-24T21:43:07.243Z,5.60
2024-02-24T21:45:09.041Z,5.58
2024-02-24T21:47:11.125Z,5.36
2024-02-24T21:49:12.765Z,5.36
2024-02-24T21:51:14.691Z,4.97
2024-02-24T21:53:16.167Z,4.98
2024-02-24T21:55:17.659Z,4.82
2024-02-24T21:57:19.243Z,5.09
2024-02-24T21:59:21.379Z,5.10
2024-02-24T22:01:22.915Z,5.07
2024-02-24T22:03:24.879Z,5.27
2024-02-24T22:05:26.416Z,5.09
2024-02-24T22:07:27.969Z,5.08
2024-02-24T22:09:29.478Z,5.08
2024-02-24T22:11:30.979Z,4.78
2024-02-24T22:13:32.515Z,4.76
2024-02-24T22:15:34.177Z,4.87
2024-02-24T22:17:35.724Z,4.78
2024-02-24T22:19:37.303Z,4.89
2024-02-24T22:21:38.923Z,4.90
2024-02-24T22:23:40.459Z,5.11
2024-02-24T22:25:41.952Z,5.02
2024-02-24T22:27:43.707Z,5.03
2024-02-24T22:29:45.293Z,5.27
2024-02-24T22:31:46.786Z,5.19
2024-02-24T22:33:48.597Z,4.98
2024-02-24T22:35:50.235Z,5.04
2024-02-24T22:37:51.826Z,5.11
2024-02-24T22:39:53.585Z,5.04
2024-02-24T22:41:55.121Z,5.21
2024-02-24T22:43:56.717Z,5.12
2024-02-24T22:45:58.613Z,5.04
2024-02-24T22:48:00.224Z,5.14
2024-02-24T22:50:01.912Z,5.06
2024-02-24T22:52:03.860Z,5.15
2024-02-24T22:54:05.486Z,5.18
2024-02-24T22:56:07.404Z,5.34
2024-02-24T22:58:09.197Z,5.27
2024-02-24T23:00:11.072Z,5.33
2024-02-24T23:02:12.582Z,5.31
2024-02-24T23:04:14.378Z,5.24
2024-02-24T23:06:16.030Z,5.16
2024-02-24T23:08:17.591Z,5.14
2024-02-24T23:10:19.362Z,5.16
2024-02-24T23:12:20.860Z,5.24
2024-02-24T23:14:22.372Z,5.32
2024-02-24T23:16:24.080Z,5.30
2024-02-24T23:18:25.694Z,5.01
2024-02-24T23:20:27.232Z,5.36
2024-02-24T23:22:28.879Z,5.43
2024-02-24T23:24:30.351Z,5.38
2024-02-24T23:26:31.995Z,5.35
2024-02-24T23:28:33.866Z,5.21
2024-02-24T23:30:35.360Z,5.31
2024-02-24T23:32:36.975Z,5.25
2024-02-24T23:34:38.696Z,5.07
2024-02-24T23:36:40.162Z,4.99
2024-02-24T23:38:41.724Z,4.68
2024-02-24T23:40:43.427Z,4.57
2024-02-24T23:42:44.954Z,4.69
2024-02-24T23:44:46.448Z,4.79
2024-02-24T23:46:48.355Z,4.85
2024-02-24T23:48:49.935Z,5.04
2024-02-24T23:50:51.558Z,5.02
2024-02-24T23:52:53.305Z,4.93
2024-02-24T23:54:56.158Z,4.85
2024-02-24T23:56:57.851Z,4.52
2024-02-24T23:58:59.608Z,4.29
